createdAt,value
2022-11-17T06:00:15.590Z,69.97
2022-11-17T06:02:25.641Z,69.24
2022-11-17T06:04:28.523Z,68.91
2022-11-17T06:06:31.626Z,68.50
2022-11-17T06:08:34.438Z,68.04
2022-11-17T06:10:37.381Z,67.87
2022-11-17T06:12:40.187Z,67.67
2022-11-17T06:14:42.996Z,67.52
2022-11-17T06:16:49.189Z,67.19
2022-11-17T06:18:57.566Z,67.30
2022-11-17T06:21:00.444Z,67.03
2022-11-17T06:23:06.949Z,66.99
2022-11-17T06:25:11.053Z,66.82
2022-11-17T06:27:16.506Z,66.63
2022-11-17T06:29:20.861Z,66.84
2022-11-17T06:31:24.541Z,66.60
2022-11-17T06:33:32.179Z,66.55
2022-11-17T06:35:36.142Z,66.57
2022-11-17T06:37:38.862Z,66.42
2022-11-17T06:39:41.581Z,66.12
2022-11-17T06:41:44.296Z,66.30
2022-11-17T06:43:47.092Z,66.21
2022-11-17T06:45:50.002Z,66.05
2022-11-17T06:47:54.217Z,65.91
2022-11-17T06:49:58.454Z,65.81
2022-11-17T06:52:01.234Z,66.03
2022-11-17T06:54:05.355Z,65.68
2022-11-17T06:56:10.176Z,65.84
2022-11-17T06:58:14.452Z,65.62
2022-11-17T07:00:18.141Z,65.60
2022-11-17T07:02:20.965Z,65.60
2022-11-17T07:04:23.852Z,65.46
2022-11-17T07:06:27.920Z,65.46
2022-11-17T07:08:31.511Z,65.46
2022-11-17T07:10:35.420Z,65.38
2022-11-17T07:12:38.344Z,65.31
2022-11-17T07:14:41.152Z,65.43
2022-11-17T07:16:44.413Z,65.05
2022-11-17T07:18:47.466Z,65.12
2022-11-17T07:20:50.279Z,65.23
2022-11-17T07:23:00.058Z,65.11
2022-11-17T07:25:02.904Z,65.06
2022-11-17T07:27:06.618Z,64.90
2022-11-17T07:29:09.380Z,65.02
2022-11-17T07:31:12.253Z,64.85
2022-11-17T07:33:15.385Z,64.74
2022-11-17T07:35:19.485Z,64.81
2022-11-17T07:37:24.738Z,64.73
2022-11-17T07:39:29.158Z,64.81
2022-11-17T07:41:32.055Z,64.78
2022-11-17T07:43:35.948Z,64.72
2022-11-17T07:45:39.104Z,64.59
2022-11-17T07:47:41.889Z,64.50
2022-11-17T07:49:44.893Z,64.57
2022-11-17T07:51:47.745Z,64.62
2022-11-17T07:53:50.523Z,64.56
2022-11-17T07:55:54.816Z,64.79
2022-11-17T07:57:58.812Z,64.65
2022-11-17T08:00:01.613Z,64.31
2022-11-17T08:02:04.605Z,64.56
2022-11-17T08:04:07.621Z,64.53
2022-11-17T08:06:10.947Z,64.48
2022-11-17T08:08:14.225Z,64.36
2022-11-17T08:10:17.258Z,64.55
2022-11-17T08:12:21.433Z,64.34
2022-11-17T08:14:24.261Z,64.31
2022-11-17T08:16:30.861Z,64.40
2022-11-17T08:18:34.081Z,64.23
2022-11-17T08:20:37.865Z,64.21
2022-11-17T08:22:40.756Z,64.24
2022-11-17T08:24:43.543Z,64.23
2022-11-17T08:26:46.878Z,64.17
2022-11-17T08:28:56.724Z,64.21
2022-11-17T08:31:01.728Z,63.97
2022-11-17T08:33:05.010Z,64.21
2022-11-17T08:35:08.378Z,64.08
2022-11-17T08:37:11.353Z,64.04
2022-11-17T08:39:15.589Z,64.05
2022-11-17T08:41:18.771Z,64.01
2022-11-17T08:43:21.392Z,63.79
2022-11-17T08:45:25.684Z,64.02
2022-11-17T08:47:28.482Z,63.84
2022-11-17T08:49:31.302Z,63.70
2022-11-17T08:51:34.653Z,63.58
2022-11-17T08:53:37.518Z,63.71
2022-11-17T08:55:41.405Z,63.79
2022-11-17T08:57:44.834Z,63.63
2022-11-17T08:59:47.660Z,63.49
2022-11-17T09:01:51.804Z,63.53
2022-11-17T09:03:57.305Z,63.53
2022-11-17T09:06:00.163Z,63.44
2022-11-17T09:08:22.890Z,63.43
2022-11-17T09:10:26.221Z,63.50
2022-11-17T09:12:30.284Z,63.33
2022-11-17T09:14:33.150Z,63.32
2022-11-17T09:16:36.300Z,63.15
2022-11-17T09:18:41.779Z,63.04
2022-11-17T09:20:46.019Z,63.13
2022-11-17T09:22:49.031Z,63.04
2022-11-17T09:24:52.079Z,63.07
2022-11-17T09:26:57.336Z,63.00
2022-11-17T09:29:02.424Z,62.99
2022-11-17T09:31:09.325Z,63.02
2022-11-17T09:33:12.543Z,62.75
2022-11-17T09:35:17.174Z,62.92
2022-11-17T09:37:20.875Z,62.68
2022-11-17T09:39:26.384Z,62.66
2022-11-17T09:41:35.283Z,62.56
2022-11-17T09:43:39.643Z,62.40
2022-11-17T09:45:47.288Z,62.53
2022-11-17T09:48:12.475Z,62.31
2022-11-17T09:50:27.139Z,62.28
2022-11-17T09:52:36.176Z,61.94
2022-11-17T09:54:44.792Z,61.97
2022-11-17T09:56:49.332Z,61.96
2022-11-17T09:58:57.502Z,61.77
2022-11-17T10:01:00.628Z,61.68
2022-11-17T10:03:03.736Z,61.75
2022-11-17T10:05:10.566Z,61.61
2022-11-17T10:07:15.095Z,61.58
2022-11-17T10:09:25.901Z,61.57
2022-11-17T10:11:34.059Z,61.59
2022-11-17T10:13:37.997Z,61.48
2022-11-17T10:15:46.932Z,61.52
2022-11-17T10:17:59.137Z,61.49
2022-11-17T10:20:02.060Z,61.31
2022-11-17T10:22:33.526Z,61.40
2022-11-17T10:24:38.898Z,61.01
2022-11-17T10:26:51.429Z,60.77
2022-11-17T10:29:09.802Z,60.41
2022-11-17T10:31:15.396Z,60.27
2022-11-17T10:33:19.804Z,60.21
2022-11-17T10:35:24.901Z,59.90
2022-11-17T10:37:31.774Z,59.56
2022-11-17T10:39:37.673Z,59.65
2022-11-17T10:41:43.798Z,59.55
2022-11-17T10:43:57.615Z,59.48
2022-11-17T10:46:05.208Z,59.32
2022-11-17T10:48:22.448Z,58.86
2022-11-17T10:50:27.524Z,59.01
2022-11-17T10:52:31.715Z,58.66
2022-11-17T10:54:34.470Z,58.77
2022-11-17T10:56:42.927Z,58.66
2022-11-17T10:59:02.960Z,58.55
2022-11-17T11:01:06.143Z,58.34
2022-11-17T11:03:18.488Z,58.32
2022-11-17T11:05:21.513Z,58.27
2022-11-17T11:07:25.062Z,58.31
2022-11-17T11:09:31.068Z,58.13
2022-11-17T11:11:42.345Z,58.05
2022-11-17T11:13:53.871Z,58.07
2022-11-17T11:15:56.901Z,57.88
2022-11-17T11:17:59.837Z,58.07
2022-11-17T11:20:02.923Z,58.01
2022-11-17T11:22:28.485Z,58.07
2022-11-17T11:24:40.097Z,57.96
2022-11-17T11:26:52.276Z,57.89
2022-11-17T11:29:06.063Z,58.04
2022-11-17T11:31:20.415Z,58.04
2022-11-17T11:33:33.199Z,57.98
2022-11-17T11:35:52.743Z,57.90
2022-11-17T11:38:04.235Z,58.01
2022-11-17T11:40:16.386Z,57.69
2022-11-17T11:42:37.238Z,57.70
2022-11-17T11:45:08.418Z,57.81
2022-11-17T11:47:24.609Z,57.83
2022-11-17T11:49:36.038Z,57.74
2022-11-17T11:51:40.039Z,57.74
2022-11-17T11:53:49.562Z,57.65
2022-11-17T11:56:03.069Z,57.52
2022-11-17T11:58:14.827Z,57.46
2022-11-17T12:00:19.318Z,57.54
2022-11-17T12:02:32.270Z,57.53
2022-11-17T12:04:41.317Z,57.44
2022-11-17T12:06:53.876Z,57.22
2022-11-17T12:09:07.362Z,57.19
2022-11-17T12:11:29.266Z,57.17
2022-11-17T12:13:32.305Z,57.44
2022-11-17T12:15:37.596Z,57.42
2022-11-17T12:17:58.348Z,57.33
2022-11-17T12:20:07.618Z,57.21
2022-11-17T12:22:21.626Z,57.12
2022-11-17T12:24:34.539Z,57.23
2022-11-17T12:26:39.134Z,57.14
2022-11-17T12:28:42.846Z,57.17
2022-11-17T12:30:56.968Z,57.13
2022-11-17T12:33:01.312Z,57.14
2022-11-17T12:35:25.188Z,57.12
2022-11-17T12:37:28.400Z,57.07
2022-11-17T12:39:56.715Z,57.20
2022-11-17T12:42:07.928Z,57.15
2022-11-17T12:44:44.979Z,57.12
2022-11-17T12:46:50.568Z,57.26
2022-11-17T12:48:59.540Z,57.28
2022-11-17T12:51:07.704Z,57.33
2022-11-17T12:53:30.142Z,57.16
2022-11-17T12:55:53.579Z,57.13
2022-11-17T12:58:10.824Z,57.05
2022-11-17T13:00:20.969Z,57.14
2022-11-17T13:02:56.450Z,57.19
2022-11-17T13:05:04.825Z,57.12
2022-11-17T13:07:09.510Z,57.05
2022-11-17T13:09:13.555Z,57.08
2022-11-17T13:11:17.662Z,57.09
2022-11-17T13:13:23.492Z,56.96
2022-11-17T13:15:26.403Z,56.86
2022-11-17T13:17:31.961Z,56.94
2022-11-17T13:19:37.106Z,56.95
2022-11-17T13:21:39.926Z,56.94
2022-11-17T13:23:45.531Z,56.97
2022-11-17T13:25:48.501Z,56.82
2022-11-17T13:27:57.112Z,56.99
2022-11-17T13:30:25.155Z,57.04
2022-11-17T13:32:28.738Z,57.17
2022-11-17T13:34:31.961Z,57.29
2022-11-17T13:36:35.276Z,57.41
2022-11-17T13:38:38.091Z,57.44
2022-11-17T13:40:43.382Z,57.66
2022-11-17T13:42:46.692Z,57.57
2022-11-17T13:44:49.883Z,57.60
2022-11-17T13:46:56.575Z,57.60
2022-11-17T13:48:59.440Z,57.77
2022-11-17T13:51:23.809Z,57.79
2022-11-17T13:53:27.856Z,57.78
2022-11-17T13:55:31.265Z,57.73
2022-11-17T13:57:34.206Z,57.83
2022-11-17T13:59:40.085Z,57.87
2022-11-17T14:01:44.168Z,57.95
2022-11-17T14:03:48.536Z,58.00
2022-11-17T14:05:56.867Z,57.95
2022-11-17T14:08:12.032Z,58.09
2022-11-17T14:10:24.513Z,58.18
2022-11-17T14:12:27.444Z,58.07
2022-11-17T14:14:35.374Z,57.87
2022-11-17T14:16:40.406Z,57.88
2022-11-17T14:18:43.516Z,57.71
2022-11-17T14:20:47.831Z,57.34
2022-11-17T14:23:04.703Z,57.12
2022-11-17T14:25:08.159Z,57.12
2022-11-17T14:27:15.266Z,56.98
2022-11-17T14:29:19.582Z,56.66
2022-11-17T14:31:22.546Z,56.41
2022-11-17T14:33:25.922Z,56.26
2022-11-17T14:35:29.226Z,56.13
2022-11-17T14:37:33.933Z,55.99
2022-11-17T14:39:38.252Z,55.88
2022-11-17T14:41:41.744Z,55.84
2022-11-17T14:43:44.828Z,55.70
2022-11-17T14:45:48.439Z,55.81
2022-11-17T14:47:51.353Z,55.75
2022-11-17T14:49:54.449Z,55.61
2022-11-17T14:51:59.076Z,55.63
2022-11-17T14:54:08.447Z,55.61
2022-11-17T14:56:13.747Z,55.66
2022-11-17T14:58:16.981Z,55.54
2022-11-17T15:00:21.021Z,55.65
2022-11-17T15:02:24.273Z,55.76
2022-11-17T15:04:49.551Z,55.46
2022-11-17T15:06:49.794Z,55.23
2022-11-17T15:08:57.078Z,55.18
2022-11-17T15:11:01.215Z,55.02
2022-11-17T15:13:04.195Z,54.76
2022-11-17T15:15:07.986Z,54.82
2022-11-17T15:17:14.464Z,54.86
2022-11-17T15:19:17.781Z,54.62
2022-11-17T15:21:20.560Z,54.60
2022-11-17T15:23:23.366Z,54.47
2022-11-17T15:25:26.279Z,54.30
2022-11-17T15:27:31.680Z,54.23
2022-11-17T15:29:34.402Z,54.07
2022-11-17T15:31:37.191Z,53.91
2022-11-17T15:33:43.774Z,53.98
2022-11-17T15:35:46.655Z,53.87
2022-11-17T15:37:49.567Z,53.82
2022-11-17T15:39:52.637Z,53.79
2022-11-17T15:41:55.463Z,53.72
2022-11-17T15:43:59.906Z,53.89
2022-11-17T15:46:03.938Z,53.86
2022-11-17T15:48:07.401Z,54.15
2022-11-17T15:50:11.498Z,54.19
2022-11-17T15:52:14.624Z,54.14
2022-11-17T15:54:20.648Z,53.89
2022-11-17T15:56:25.463Z,53.72
2022-11-17T15:58:28.242Z,53.89
2022-11-17T16:00:34.140Z,53.78
2022-11-17T16:02:37.135Z,53.70
2022-11-17T16:04:39.944Z,53.20
2022-11-17T16:06:44.567Z,53.39
2022-11-17T16:08:47.413Z,53.08
2022-11-17T16:10:50.240Z,52.96
2022-11-17T16:12:53.438Z,52.92
2022-11-17T16:14:56.624Z,52.79
2022-11-17T16:17:00.942Z,52.77
2022-11-17T16:19:05.817Z,52.57
2022-11-17T16:21:11.632Z,52.63
2022-11-17T16:23:15.495Z,52.61
2022-11-17T16:25:18.379Z,52.45
2022-11-17T16:27:21.257Z,52.52
2022-11-17T16:29:24.807Z,52.51
2022-11-17T16:31:30.019Z,52.34
2022-11-17T16:33:34.159Z,52.29
2022-11-17T16:35:37.123Z,52.11
2022-11-17T16:37:39.859Z,52.46
2022-11-17T16:39:43.222Z,52.24
2022-11-17T16:41:46.666Z,52.28
2022-11-17T16:43:49.896Z,52.27
2022-11-17T16:45:52.766Z,52.22
2022-11-17T16:47:55.703Z,52.35
2022-11-17T16:49:59.701Z,52.37
2022-11-17T16:52:02.603Z,52.36
2022-11-17T16:54:07.219Z,52.16
2022-11-17T16:56:12.188Z,52.16
2022-11-17T16:58:15.279Z,52.14
2022-11-17T17:00:18.488Z,52.09
2022-11-17T17:02:21.542Z,51.81
2022-11-17T17:04:24.375Z,51.86
2022-11-17T17:06:29.302Z,51.73
2022-11-17T17:08:32.020Z,51.65
2022-11-17T17:10:35.172Z,51.53
2022-11-17T17:12:38.119Z,51.67
2022-11-17T17:14:41.239Z,51.97
2022-11-17T17:16:44.141Z,51.59
2022-11-17T17:18:47.406Z,51.59
2022-11-17T17:20:51.773Z,51.47
2022-11-17T17:23:00.265Z,51.69
2022-11-17T17:25:06.877Z,51.36
2022-11-17T17:27:09.795Z,51.35
2022-11-17T17:29:12.937Z,51.22
2022-11-17T17:31:21.233Z,50.94
2022-11-17T17:33:24.672Z,51.24
2022-11-17T17:35:27.426Z,51.20
2022-11-17T17:37:32.922Z,51.12
2022-11-17T17:39:37.897Z,51.07
2022-11-17T17:41:41.909Z,51.37
2022-11-17T17:43:46.343Z,51.15
2022-11-17T17:45:49.329Z,51.29
2022-11-17T17:47:52.045Z,51.30
2022-11-17T17:49:54.840Z,51.13
2022-11-17T17:51:57.675Z,51.39
2022-11-17T17:54:01.966Z,51.54
2022-11-17T17:56:09.564Z,51.39
2022-11-17T17:58:12.553Z,51.47
2022-11-17T18:00:16.212Z,51.64
2022-11-17T18:02:18.991Z,51.35
2022-11-17T18:04:21.858Z,51.32
2022-11-17T18:06:24.596Z,51.34
2022-11-17T18:08:27.746Z,51.42
2022-11-17T18:10:31.019Z,51.31
2022-11-17T18:12:35.142Z,51.43
2022-11-17T18:14:38.085Z,51.61
2022-11-17T18:16:40.967Z,51.82
2022-11-17T18:18:45.483Z,51.96
2022-11-17T18:20:48.550Z,52.26
2022-11-17T18:22:51.531Z,52.50
2022-11-17T18:24:58.159Z,52.67
2022-11-17T18:27:01.190Z,52.96
2022-11-17T18:29:07.434Z,53.19
2022-11-17T18:31:10.570Z,53.31
2022-11-17T18:33:13.608Z,53.69
2022-11-17T18:35:16.484Z,53.64
2022-11-17T18:37:19.607Z,53.89
2022-11-17T18:39:23.271Z,54.38
2022-11-17T18:41:30.604Z,54.58
2022-11-17T18:43:34.351Z,55.16
2022-11-17T18:45:39.398Z,55.38
2022-11-17T18:47:42.382Z,55.71
2022-11-17T18:49:45.355Z,56.21
2022-11-17T18:51:48.164Z,56.55
2022-11-17T18:53:52.100Z,56.54
2022-11-17T18:55:59.643Z,56.85
2022-11-17T18:58:02.523Z,57.13
2022-11-17T19:00:06.635Z,57.56
2022-11-17T19:02:11.209Z,57.85
2022-11-17T19:04:15.287Z,58.13
2022-11-17T19:06:19.388Z,58.37
2022-11-17T19:08:23.882Z,58.56
2022-11-17T19:10:26.843Z,58.83
2022-11-17T19:12:29.637Z,58.80
2022-11-17T19:14:32.986Z,58.85
2022-11-17T19:16:42.576Z,58.76
2022-11-17T19:18:50.184Z,58.96
2022-11-17T19:20:53.165Z,59.04
2022-11-17T19:22:55.976Z,59.23
2022-11-17T19:24:59.030Z,59.05
2022-11-17T19:27:01.918Z,59.14
2022-11-17T19:29:11.160Z,59.30
2022-11-17T19:31:19.098Z,59.04
2022-11-17T19:33:22.111Z,59.08
2022-11-17T19:35:26.437Z,59.17
2022-11-17T19:37:29.129Z,58.95
2022-11-17T19:39:31.935Z,58.85
2022-11-17T19:41:36.324Z,58.93
2022-11-17T19:43:44.763Z,58.82
2022-11-17T19:45:48.476Z,58.61
2022-11-17T19:47:51.586Z,58.67
2022-11-17T19:49:54.490Z,58.56
2022-11-17T19:51:58.830Z,58.52
2022-11-17T19:54:03.645Z,58.66
2022-11-17T19:56:06.937Z,58.48
2022-11-17T19:58:09.752Z,58.56
2022-11-17T20:00:13.866Z,58.42
2022-11-17T20:02:17.079Z,58.28
2022-11-17T20:04:19.982Z,58.39
2022-11-17T20:06:24.465Z,58.23
2022-11-17T20:08:30.990Z,58.25
2022-11-17T20:10:33.998Z,58.27
2022-11-17T20:12:37.747Z,58.33
2022-11-17T20:14:40.914Z,58.17
2022-11-17T20:16:43.668Z,58.17
2022-11-17T20:18:50.747Z,58.11
2022-11-17T20:20:53.547Z,58.05
2022-11-17T20:22:57.007Z,58.25
2022-11-17T20:25:03.657Z,57.95
2022-11-17T20:27:07.245Z,57.96
2022-11-17T20:29:10.424Z,57.98
2022-11-17T20:31:14.912Z,57.91
2022-11-17T20:33:17.631Z,57.96
2022-11-17T20:35:20.488Z,57.96
2022-11-17T20:37:23.418Z,57.74
2022-11-17T20:39:26.228Z,57.79
2022-11-17T20:41:31.122Z,57.83
2022-11-17T20:43:35.376Z,57.73
2022-11-17T20:45:38.468Z,57.69
2022-11-17T20:47:41.203Z,57.73
2022-11-17T20:49:44.191Z,57.66
2022-11-17T20:51:47.067Z,57.73
2022-11-17T20:53:50.108Z,57.71
2022-11-17T20:55:53.102Z,57.55
2022-11-17T20:57:57.304Z,57.58
2022-11-17T21:00:00.033Z,57.47
2022-11-17T21:02:03.323Z,57.53
2022-11-17T21:04:06.344Z,57.80
2022-11-17T21:06:09.950Z,57.92
2022-11-17T21:08:12.814Z,57.88
2022-11-17T21:10:16.527Z,57.99
2022-11-17T21:12:19.654Z,58.00
2022-11-17T21:14:25.748Z,58.07
2022-11-17T21:16:28.955Z,58.13
2022-11-17T21:18:31.003Z,58.00
2022-11-17T21:20:34.208Z,58.16
2022-11-17T21:22:37.063Z,58.30
2022-11-17T21:24:39.964Z,58.39
2022-11-17T21:26:42.949Z,58.31
2022-11-17T21:28:47.547Z,58.44
2022-11-17T21:30:52.004Z,58.62
2022-11-17T21:32:54.847Z,58.55
2022-11-17T21:34:59.436Z,58.61
2022-11-17T21:37:02.295Z,58.66
2022-11-17T21:39:05.826Z,58.76
2022-11-17T21:41:10.923Z,58.77
2022-11-17T21:43:14.393Z,58.97
2022-11-17T21:45:17.974Z,59.00
2022-11-17T21:47:22.364Z,59.08
2022-11-17T21:49:25.271Z,59.14
2022-11-17T21:51:29.703Z,59.18
2022-11-17T21:53:32.601Z,59.19
2022-11-17T21:55:35.416Z,59.32
2022-11-17T21:57:38.217Z,59.35
2022-11-17T21:59:41.178Z,59.57
2022-11-17T22:01:44.356Z,59.48
2022-11-17T22:03:48.573Z,59.51
2022-11-17T22:05:54.834Z,59.48
2022-11-17T22:08:01.148Z,59.53
2022-11-17T22:10:04.343Z,59.55
2022-11-17T22:12:07.807Z,59.72
2022-11-17T22:14:12.433Z,59.62
2022-11-17T22:16:15.498Z,59.68
2022-11-17T22:18:18.378Z,59.73
2022-11-17T22:20:22.831Z,59.83
2022-11-17T22:22:25.643Z,59.98
